createdAt,value
2022-12-28T00:00:13.003Z,101747.22
2022-12-28T00:01:26.762Z,101750.84
2022-12-28T00:02:29.965Z,101752.22
2022-12-28T00:03:37.701Z,101747.38
2022-12-28T00:04:44.832Z,101749.56
2022-12-28T00:06:43.075Z,101749.97
2022-12-28T00:07:34.706Z,101756.25
2022-12-28T00:08:40.905Z,101763.53
2022-12-28T00:09:46.770Z,101758.91
2022-12-28T00:11:08.065Z,101759.28
2022-12-28T00:12:15.025Z,101761.09
2022-12-28T00:13:20.575Z,101759.94
2022-12-28T00:14:27.176Z,101762.88
2022-12-28T00:15:32.037Z,101763.31
2022-12-28T00:16:42.258Z,101762.44
2022-12-28T00:17:48.916Z,101763.25
2022-12-28T00:18:55.281Z,101763.31
2022-12-28T00:20:06.708Z,101765.69
2022-12-28T00:21:10.390Z,101765.91
2022-12-28T00:22:15.882Z,101762.38
2022-12-28T00:23:32.942Z,101758.63
2022-12-28T00:24:47.912Z,101762.72
2022-12-28T00:25:57.917Z,101759.41
2022-12-28T00:27:04.806Z,101762.16
2022-12-28T00:28:08.091Z,101759.97
2022-12-28T00:29:12.078Z,101760.38
2022-12-28T00:30:23.231Z,101767.81
2022-12-28T00:31:25.804Z,101765.16
2022-12-28T00:32:30.950Z,101768.31
2022-12-28T00:33:43.147Z,101767.66
2022-12-28T00:34:51.122Z,101766.09
2022-12-28T00:35:59.795Z,101762.00
2022-12-28T00:37:12.951Z,101764.88
2022-12-28T00:38:21.162Z,101766.03
2022-12-28T00:39:32.433Z,101764.38
2022-12-28T00:40:37.036Z,101771.97
2022-12-28T00:41:40.546Z,101767.97
2022-12-28T00:42:46.379Z,101770.34
2022-12-28T00:44:05.034Z,101777.09
2022-12-28T00:45:10.722Z,101777.13
2022-12-28T00:46:14.138Z,101775.72
2022-12-28T00:47:20.433Z,101778.47
2022-12-28T00:48:28.436Z,101775.63
2022-12-28T00:49:38.116Z,101776.22
2022-12-28T00:50:51.794Z,101766.81
2022-12-28T00:51:57.031Z,101774.09
2022-12-28T00:53:04.176Z,101773.53
2022-12-28T00:54:06.686Z,101771.00
2022-12-28T00:55:12.295Z,101769.78
2022-12-28T00:56:21.671Z,101772.78
2022-12-28T00:57:27.539Z,101765.97
2022-12-28T00:58:29.931Z,101758.63
2022-12-28T00:59:45.112Z,101758.25
2022-12-28T01:00:53.239Z,101758.06
2022-12-28T01:02:00.441Z,101761.25
2022-12-28T01:03:15.615Z,101758.06
2022-12-28T01:04:18.293Z,101762.28
2022-12-28T01:05:26.657Z,101757.50
2022-12-28T01:06:32.955Z,101762.38
2022-12-28T01:07:41.668Z,101756.72
2022-12-28T01:08:44.733Z,101763.78
2022-12-28T01:09:49.378Z,101760.19
2022-12-28T01:10:53.802Z,101767.13
2022-12-28T01:11:56.218Z,101759.00
2022-12-28T01:13:00.895Z,101773.03
2022-12-28T01:14:04.188Z,101764.28
2022-12-28T01:15:14.548Z,101769.50
2022-12-28T01:16:20.087Z,101771.44
2022-12-28T01:17:25.198Z,101769.81
2022-12-28T01:18:36.337Z,101771.00
2022-12-28T01:19:39.125Z,101765.63
2022-12-28T01:20:45.103Z,101759.88
2022-12-28T01:21:52.971Z,101761.91
2022-12-28T01:23:09.431Z,101762.25
2022-12-28T01:25:34.098Z,101761.13
2022-12-28T01:26:37.229Z,101769.03
2022-12-28T01:27:45.651Z,101760.28
2022-12-28T01:28:48.148Z,101769.03
2022-12-28T01:29:57.867Z,101770.19
2022-12-28T01:31:11.659Z,101773.13
2022-12-28T01:32:14.073Z,101764.75
2022-12-28T01:33:17.719Z,101763.38
2022-12-28T01:34:27.398Z,101766.31
2022-12-28T01:35:29.897Z,101773.06
2022-12-28T01:36:47.492Z,101764.66
2022-12-28T01:38:01.029Z,101769.63
2022-12-28T01:39:06.809Z,101771.69
2022-12-28T01:40:17.633Z,101774.47
2022-12-28T01:41:20.930Z,101775.59
2022-12-28T01:42:23.654Z,101771.41
2022-12-28T01:43:58.987Z,101761.59
2022-12-28T01:45:21.095Z,101761.09
2022-12-28T01:46:50.258Z,101759.94
2022-12-28T01:47:55.256Z,101757.34
2022-12-28T01:49:12.982Z,101759.78
2022-12-28T01:50:20.234Z,101761.00
2022-12-28T01:51:36.262Z,101753.03
2022-12-28T01:53:05.496Z,101757.78
2022-12-28T01:54:08.166Z,101754.59
2022-12-28T01:55:30.151Z,101762.97
2022-12-28T01:56:43.878Z,101762.16
2022-12-28T01:58:07.956Z,101764.75
2022-12-28T01:59:12.918Z,101763.97
2022-12-28T02:00:20.693Z,101759.47
2022-12-28T02:01:31.090Z,101771.59
2022-12-28T02:02:37.199Z,101770.31
2022-12-28T02:03:43.957Z,101770.22
2022-12-28T02:05:00.163Z,101763.63
2022-12-28T02:06:10.118Z,101753.31
2022-12-28T02:07:29.663Z,101757.88
2022-12-28T02:08:54.535Z,101763.31
2022-12-28T02:10:40.703Z,101761.91
2022-12-28T02:11:24.354Z,101766.13
2022-12-28T02:12:29.752Z,101761.19
2022-12-28T02:13:39.145Z,101762.09
2022-12-28T02:14:47.480Z,101765.06
2022-12-28T02:15:53.040Z,101767.13
2022-12-28T02:16:59.743Z,101762.84
2022-12-28T02:18:02.754Z,101760.78
2022-12-28T02:19:07.150Z,101765.72
2022-12-28T02:20:10.870Z,101767.94
2022-12-28T02:21:58.907Z,101770.09
2022-12-28T02:23:36.495Z,101761.13
2022-12-28T02:25:17.042Z,101766.72
2022-12-28T02:26:58.993Z,101771.91
2022-12-28T02:28:58.112Z,101772.47
2022-12-28T02:30:11.975Z,101765.16
2022-12-28T02:31:39.049Z,101771.91
2022-12-28T02:33:09.446Z,101777.28
2022-12-28T02:34:26.299Z,101777.50
2022-12-28T02:35:37.454Z,101766.13
2022-12-28T02:36:52.402Z,101769.88
2022-12-28T02:38:00.730Z,101782.66
2022-12-28T02:39:25.698Z,101785.13
2022-12-28T02:40:35.277Z,101782.91
2022-12-28T02:41:41.938Z,101772.16
2022-12-28T02:42:58.510Z,101776.13
2022-12-28T02:44:03.150Z,101771.94
2022-12-28T02:45:56.783Z,101774.69
2022-12-28T02:47:22.233Z,101759.25
2022-12-28T02:48:49.143Z,101762.56
2022-12-28T02:50:09.981Z,101768.56
2022-12-28T02:51:37.871Z,101768.59
2022-12-28T02:53:05.229Z,101770.97
2022-12-28T02:54:53.546Z,101764.78
2022-12-28T02:56:17.294Z,101770.34
2022-12-28T02:58:18.019Z,101769.94
2022-12-28T02:59:57.307Z,101768.56
2022-12-28T03:01:19.754Z,101767.75
2022-12-28T03:02:54.630Z,101770.91
2022-12-28T03:04:26.311Z,101771.31
2022-12-28T03:06:10.754Z,101767.50
2022-12-28T03:08:13.009Z,101760.75
2022-12-28T03:09:39.805Z,101766.56
2022-12-28T03:11:16.084Z,101759.00
2022-12-28T03:12:50.365Z,101758.38
2022-12-28T03:14:03.889Z,101754.03
2022-12-28T03:15:48.644Z,101763.38
2022-12-28T03:17:19.723Z,101758.59
2022-12-28T03:18:43.526Z,101755.00
2022-12-28T03:20:12.716Z,101760.34
2022-12-28T03:21:34.809Z,101757.38
2022-12-28T03:23:01.501Z,101758.22
2022-12-28T03:24:28.344Z,101752.25
2022-12-28T03:25:57.064Z,101755.03
2022-12-28T03:27:30.735Z,101760.81
2022-12-28T03:28:58.264Z,101763.41
2022-12-28T03:30:30.762Z,101751.44
2022-12-28T03:31:35.065Z,101758.31
2022-12-28T03:32:43.015Z,101762.25
2022-12-28T03:33:48.961Z,101759.63
2022-12-28T03:34:52.922Z,101759.81
2022-12-28T03:36:24.640Z,101752.19
2022-12-28T03:37:33.870Z,101757.97
2022-12-28T03:39:02.417Z,101758.41
2022-12-28T03:40:17.509Z,101758.59
2022-12-28T03:41:28.996Z,101757.78
2022-12-28T03:43:05.272Z,101754.97
2022-12-28T03:44:29.309Z,101763.72
2022-12-28T03:46:02.645Z,101764.06
2022-12-28T03:47:16.522Z,101758.88
2022-12-28T03:48:20.049Z,101755.31
2022-12-28T03:49:25.047Z,101751.97
2022-12-28T03:50:30.616Z,101746.72
2022-12-28T03:51:34.089Z,101740.56
2022-12-28T03:52:45.081Z,101743.13
2022-12-28T03:53:50.783Z,101751.72
2022-12-28T03:54:56.486Z,101741.97
2022-12-28T03:56:31.127Z,101745.84
2022-12-28T03:57:39.827Z,101746.22
2022-12-28T03:58:52.472Z,101745.44
2022-12-28T03:59:56.505Z,101743.84
2022-12-28T04:01:04.757Z,101743.03
2022-12-28T04:02:08.871Z,101739.44
2022-12-28T04:03:19.080Z,101739.41
2022-12-28T04:04:34.091Z,101737.66
2022-12-28T04:05:36.648Z,101731.03
2022-12-28T04:06:39.674Z,101734.22
2022-12-28T04:07:42.735Z,101741.63
2022-12-28T04:08:46.857Z,101736.22
2022-12-28T04:09:49.747Z,101743.59
2022-12-28T04:10:52.869Z,101739.41
2022-12-28T04:11:55.265Z,101748.94
2022-12-28T04:13:10.914Z,101752.13
2022-12-28T04:14:29.271Z,101740.00
2022-12-28T04:15:31.756Z,101747.75
2022-12-28T04:16:36.605Z,101758.13
2022-12-28T04:17:41.441Z,101758.34
2022-12-28T04:18:44.612Z,101759.31
2022-12-28T04:19:47.660Z,101752.78
2022-12-28T04:20:54.510Z,101758.34
2022-12-28T04:21:59.406Z,101754.97
2022-12-28T04:23:06.223Z,101755.41
2022-12-28T04:24:11.427Z,101760.00
2022-12-28T04:25:14.690Z,101749.03
2022-12-28T04:26:18.866Z,101754.03
2022-12-28T04:27:24.425Z,101745.84
2022-12-28T04:28:30.986Z,101749.25
2022-12-28T04:29:52.631Z,101748.66
2022-12-28T04:30:56.444Z,101743.69
2022-12-28T04:31:59.108Z,101746.50
2022-12-28T04:33:06.145Z,101750.03
2022-12-28T04:34:12.258Z,101747.88
2022-12-28T04:35:19.659Z,101744.16
2022-12-28T04:36:26.575Z,101738.47
2022-12-28T04:37:30.147Z,101736.22
2022-12-28T04:38:33.021Z,101738.00
2022-12-28T04:39:54.095Z,101745.19
2022-12-28T04:40:57.901Z,101736.44
2022-12-28T04:42:03.284Z,101744.72
2022-12-28T04:43:05.787Z,101738.97
2022-12-28T04:44:08.380Z,101744.72
2022-12-28T04:45:11.095Z,101737.41
2022-12-28T04:46:15.048Z,101740.75
2022-12-28T04:47:17.630Z,101735.00
2022-12-28T04:48:19.950Z,101737.59
2022-12-28T04:49:22.541Z,101733.44
2022-12-28T04:50:25.920Z,101729.63
2022-12-28T04:51:29.399Z,101730.84
2022-12-28T04:52:34.227Z,101733.44
2022-12-28T04:53:38.439Z,101724.06
2022-12-28T04:54:40.961Z,101729.66
2022-12-28T04:55:43.644Z,101728.88
2022-12-28T04:56:46.418Z,101722.94
2022-12-28T04:57:49.191Z,101723.34
2022-12-28T04:58:57.106Z,101728.88
2022-12-28T04:59:59.440Z,101723.91
2022-12-28T05:01:13.369Z,101722.94
2022-12-28T05:02:15.979Z,101723.38
2022-12-28T05:03:18.511Z,101733.72
2022-12-28T05:04:20.987Z,101736.66
2022-12-28T05:05:23.435Z,101737.28
2022-12-28T05:06:27.505Z,101734.88
2022-12-28T05:07:30.173Z,101736.28
2022-12-28T05:08:34.208Z,101735.09
2022-12-28T05:09:36.820Z,101734.75
2022-12-28T05:10:39.278Z,101729.38
2022-12-28T05:11:41.822Z,101723.22
2022-12-28T05:12:44.334Z,101727.97
2022-12-28T05:13:47.145Z,101719.41
2022-12-28T05:14:49.633Z,101725.97
2022-12-28T05:15:52.052Z,101725.97
2022-12-28T05:16:54.544Z,101729.16
2022-12-28T05:17:57.220Z,101732.13
2022-12-28T05:19:02.257Z,101739.69
2022-12-28T05:20:08.282Z,101737.69
2022-12-28T05:21:21.874Z,101744.09
2022-12-28T05:22:24.252Z,101744.09
2022-12-28T05:23:28.630Z,101736.94
2022-12-28T05:24:33.541Z,101739.72
2022-12-28T05:25:36.052Z,101735.75
2022-12-28T05:26:38.631Z,101736.75
2022-12-28T05:27:41.107Z,101724.78
2022-12-28T05:28:44.063Z,101731.34
2022-12-28T05:29:47.269Z,101724.78
2022-12-28T05:30:49.738Z,101718.22
2022-12-28T05:31:52.432Z,101724.38
2022-12-28T05:32:54.910Z,101720.22
2022-12-28T05:33:59.757Z,101731.16
2022-12-28T05:35:02.188Z,101727.59
2022-12-28T05:36:13.099Z,101728.00
2022-12-28T05:37:20.202Z,101730.56
2022-12-28T05:38:25.039Z,101732.53
2022-12-28T05:39:27.686Z,101733.75
2022-12-28T05:40:30.619Z,101739.53
2022-12-28T05:41:33.228Z,101735.13
2022-12-28T05:42:36.505Z,101737.78
2022-12-28T05:43:39.555Z,101736.16
2022-12-28T05:44:49.326Z,101734.97
2022-12-28T05:45:51.873Z,101740.56
2022-12-28T05:46:54.461Z,101744.91
2022-12-28T05:47:58.034Z,101739.75
2022-12-28T05:49:01.120Z,101736.78
2022-12-28T05:50:03.735Z,101739.34
2022-12-28T05:51:12.244Z,101729.41
2022-12-28T05:52:16.420Z,101739.94
2022-12-28T05:53:18.785Z,101742.50
2022-12-28T05:54:21.248Z,101744.94
2022-12-28T05:55:28.358Z,101743.13
2022-12-28T05:56:37.014Z,101744.72
2022-12-28T05:57:39.589Z,101747.69
2022-12-28T05:58:43.869Z,101750.06
2022-12-28T05:59:46.893Z,101756.44
2022-12-28T06:00:49.220Z,101753.84
2022-12-28T06:01:51.878Z,101758.00
2022-12-28T06:02:58.010Z,101753.66
2022-12-28T06:04:06.896Z,101755.63
2022-12-28T06:05:09.506Z,101756.44
2022-12-28T06:06:14.606Z,101756.81
2022-12-28T06:07:17.190Z,101751.66
2022-12-28T06:08:22.658Z,101747.28
2022-12-28T06:09:26.052Z,101745.88
2022-12-28T06:10:28.441Z,101750.06
2022-12-28T06:11:31.383Z,101750.47
2022-12-28T06:12:33.703Z,101747.53
2022-12-28T06:13:36.983Z,101736.19
2022-12-28T06:14:47.400Z,101736.78
2022-12-28T06:15:49.808Z,101740.13
2022-12-28T06:16:52.711Z,101745.53
2022-12-28T06:17:55.153Z,101748.31
2022-12-28T06:18:57.806Z,101740.13
2022-12-28T06:20:00.502Z,101736.13
2022-12-28T06:21:08.481Z,101743.66
2022-12-28T06:22:10.942Z,101736.50
2022-12-28T06:23:14.222Z,101739.50
2022-12-28T06:24:20.641Z,101735.28
2022-12-28T06:25:23.306Z,101739.44
2022-12-28T06:26:38.241Z,101747.38
2022-12-28T06:27:43.763Z,101744.03
2022-12-28T06:28:51.305Z,101740.22
2022-12-28T06:29:54.079Z,101740.06
2022-12-28T06:31:07.105Z,101741.25
2022-12-28T06:32:10.871Z,101749.19
2022-12-28T06:33:15.505Z,101744.44
2022-12-28T06:34:18.444Z,101750.78
2022-12-28T06:35:20.837Z,101742.63
2022-12-28T06:36:35.312Z,101745.63
2022-12-28T06:37:38.254Z,101749.59
2022-12-28T06:38:41.031Z,101750.38
2022-12-28T06:39:43.402Z,101754.94
2022-12-28T06:41:12.390Z,101748.97
2022-12-28T06:42:08.908Z,101755.28
2022-12-28T06:43:11.284Z,101757.69
2022-12-28T06:44:14.517Z,101764.25
2022-12-28T06:45:17.051Z,101759.88
2022-12-28T06:46:21.281Z,101767.06
2022-12-28T06:47:23.741Z,101758.72
2022-12-28T06:48:26.507Z,101760.72
2022-12-28T06:49:29.057Z,101762.31
2022-12-28T06:50:36.804Z,101771.22
2022-12-28T06:51:52.491Z,101769.00
2022-12-28T06:52:57.601Z,101769.94
2022-12-28T06:54:02.309Z,101768.72
2022-12-28T06:55:13.508Z,101769.25
2022-12-28T06:56:29.203Z,101775.34
2022-12-28T06:57:32.261Z,101784.91
2022-12-28T06:58:37.799Z,101795.66
2022-12-28T06:59:40.508Z,101801.75
2022-12-28T07:00:43.265Z,101800.91
2022-12-28T07:01:46.416Z,101800.19
2022-12-28T07:02:49.187Z,101799.94
2022-12-28T07:03:54.213Z,101787.53
2022-12-28T07:04:56.887Z,101785.19
2022-12-28T07:06:03.978Z,101778.28
2022-12-28T07:07:08.829Z,101783.66
2022-12-28T07:08:13.717Z,101780.25
2022-12-28T07:09:16.842Z,101772.66
2022-12-28T07:10:19.323Z,101775.69
2022-12-28T07:11:22.776Z,101776.44
2022-12-28T07:12:25.690Z,101763.31
2022-12-28T07:13:28.541Z,101770.44
2022-12-28T07:14:32.565Z,101774.59
2022-12-28T07:15:36.302Z,101776.34
2022-12-28T07:17:40.832Z,101775.00
2022-12-28T07:18:43.691Z,101782.53
2022-12-28T07:19:47.377Z,101779.63
2022-12-28T07:20:59.171Z,101773.22
2022-12-28T07:22:01.856Z,101787.31
2022-12-28T07:23:04.318Z,101786.38
2022-12-28T07:24:07.805Z,101787.81
2022-12-28T07:25:10.755Z,101794.09
2022-12-28T07:26:20.795Z,101789.91
2022-12-28T07:27:23.800Z,101793.09
2022-12-28T07:28:26.209Z,101783.09
2022-12-28T07:29:30.500Z,101790.25
2022-12-28T07:30:41.535Z,101777.69
2022-12-28T07:31:45.965Z,101790.44
2022-12-28T07:32:48.332Z,101790.22
2022-12-28T07:33:52.498Z,101788.41
2022-12-28T07:34:55.107Z,101784.22
2022-12-28T07:35:59.363Z,101789.97
2022-12-28T07:37:02.433Z,101787.78
2022-12-28T07:38:05.031Z,101786.09
2022-12-28T07:39:14.904Z,101790.88
2022-12-28T07:40:23.891Z,101792.81
2022-12-28T07:41:32.913Z,101795.59
2022-12-28T07:42:35.630Z,101791.09
2022-12-28T07:43:38.882Z,101799.16
2022-12-28T07:44:49.408Z,101797.09
2022-12-28T07:46:05.195Z,101796.88
2022-12-28T07:47:16.596Z,101799.47
2022-12-28T07:48:19.184Z,101796.09
2022-12-28T07:49:23.576Z,101794.78
2022-12-28T07:50:25.986Z,101796.09
2022-12-28T07:51:40.714Z,101792.63
2022-12-28T07:52:52.463Z,101798.75
2022-12-28T07:53:56.270Z,101801.56
2022-12-28T07:54:58.759Z,101799.69
2022-12-28T07:56:04.564Z,101793.03
2022-12-28T07:57:10.830Z,101805.19
2022-12-28T07:58:14.591Z,101807.81
2022-12-28T07:59:37.944Z,101822.47
2022-12-28T08:00:40.531Z,101830.38
2022-12-28T08:01:50.381Z,101835.34
2022-12-28T08:02:58.854Z,101854.94
2022-12-28T08:04:03.956Z,101863.22
2022-12-28T08:05:08.235Z,101870.09
2022-12-28T08:06:13.861Z,101854.72
2022-12-28T08:07:24.540Z,101855.59
2022-12-28T08:08:28.311Z,101847.22
2022-12-28T08:09:34.050Z,101844.75
2022-12-28T08:10:36.728Z,101853.19
2022-12-28T08:11:44.699Z,101862.97
2022-12-28T08:12:47.292Z,101863.19
2022-12-28T08:13:52.121Z,101873.31
2022-12-28T08:14:54.848Z,101873.16
2022-12-28T08:15:57.377Z,101878.53
2022-12-28T08:16:59.918Z,101884.69
2022-12-28T08:18:02.799Z,101880.47
2022-12-28T08:19:09.244Z,101887.69
2022-12-28T08:20:12.426Z,101891.53
2022-12-28T08:21:21.250Z,101891.22
2022-12-28T08:22:27.211Z,101885.06
2022-12-28T08:23:37.229Z,101883.88
2022-12-28T08:24:42.361Z,101888.41
2022-12-28T08:25:46.770Z,101881.25
2022-12-28T08:27:06.752Z,101893.22
2022-12-28T08:28:16.331Z,101891.06
2022-12-28T08:29:26.701Z,101882.59
2022-12-28T08:30:56.670Z,101883.69
2022-12-28T08:32:13.519Z,101880.44
2022-12-28T08:33:37.225Z,101869.81
2022-12-28T08:35:33.236Z,101885.44
2022-12-28T08:36:37.214Z,101884.41
2022-12-28T08:39:39.775Z,101891.41
2022-12-28T08:41:21.674Z,101889.31
2022-12-28T08:42:24.978Z,101881.50
2022-12-28T08:44:06.173Z,101895.50
2022-12-28T08:45:13.531Z,101892.31
2022-12-28T08:46:31.675Z,101900.63
2022-12-28T08:49:04.555Z,101890.66
2022-12-28T08:50:20.034Z,101882.81
2022-12-28T08:51:28.362Z,101874.97
2022-12-28T08:52:39.489Z,101873.75
2022-12-28T08:54:08.193Z,101865.41
2022-12-28T08:55:18.282Z,101871.59
2022-12-28T08:56:25.733Z,101869.28
2022-12-28T08:57:37.341Z,101869.50
2022-12-28T08:58:45.567Z,101867.38
2022-12-28T08:59:51.185Z,101877.03
2022-12-28T09:01:00.867Z,101865.41
2022-12-28T09:02:14.229Z,101869.47
2022-12-28T09:03:20.654Z,101866.81
2022-12-28T09:04:29.258Z,101873.25
2022-12-28T09:05:39.378Z,101870.75
2022-12-28T09:06:53.181Z,101871.13
2022-12-28T09:07:59.774Z,101869.81
2022-12-28T09:09:10.494Z,101872.75
2022-12-28T09:10:26.146Z,101864.94
2022-12-28T09:11:29.241Z,101875.63
2022-12-28T09:12:35.875Z,101867.34
2022-12-28T09:13:45.489Z,101880.81
2022-12-28T09:14:52.474Z,101879.41
2022-12-28T09:16:27.836Z,101887.59
2022-12-28T09:17:33.483Z,101890.47
2022-12-28T09:18:41.504Z,101888.81
2022-12-28T09:19:52.863Z,101882.13
2022-12-28T09:20:59.237Z,101890.41
2022-12-28T09:22:05.846Z,101887.34
2022-12-28T09:23:11.456Z,101882.19
2022-12-28T09:24:17.177Z,101881.03
2022-12-28T09:25:22.407Z,101879.56
2022-12-28T09:26:31.540Z,101878.72
2022-12-28T09:27:39.906Z,101873.94
2022-12-28T09:28:50.079Z,101866.34
2022-12-28T09:29:54.386Z,101878.44
2022-12-28T09:30:57.586Z,101873.19
2022-12-28T09:32:02.965Z,101868.56
2022-12-28T09:34:13.893Z,101867.22
2022-12-28T09:35:23.313Z,101870.56
2022-12-28T09:38:16.489Z,101862.22
2022-12-28T09:39:37.001Z,101880.03
2022-12-28T09:40:52.919Z,101870.75
2022-12-28T09:42:11.891Z,101868.56
2022-12-28T09:43:27.393Z,101869.47
2022-12-28T09:45:11.069Z,101871.00
2022-12-28T09:47:12.710Z,101866.72
2022-12-28T09:51:30.647Z,101860.25
2022-12-28T09:53:27.590Z,101856.22
2022-12-28T09:55:08.395Z,101860.53
2022-12-28T09:57:05.882Z,101855.75
2022-12-28T09:58:57.260Z,101855.50
2022-12-28T10:00:04.772Z,101857.44
2022-12-28T10:03:38.058Z,101854.28
2022-12-28T10:04:44.503Z,101845.63
2022-12-28T10:05:59.894Z,101848.75
2022-12-28T10:07:03.038Z,101845.31
2022-12-28T10:08:06.023Z,101846.97
2022-12-28T10:09:16.424Z,101845.16
2022-12-28T10:10:20.651Z,101843.03
2022-12-28T10:11:28.317Z,101841.75
2022-12-28T10:12:31.564Z,101840.41
2022-12-28T10:13:54.480Z,101843.59
2022-12-28T10:14:59.850Z,101835.72
2022-12-28T10:16:05.444Z,101840.97
2022-12-28T10:17:16.841Z,101844.66
2022-12-28T10:18:23.993Z,101843.59
2022-12-28T10:19:32.527Z,101832.28
2022-12-28T10:20:45.087Z,101835.50
2022-12-28T10:22:02.440Z,101831.34
2022-12-28T10:23:07.871Z,101835.66
2022-12-28T10:25:46.815Z,101828.09
2022-12-28T10:27:11.047Z,101834.44
2022-12-28T10:28:37.955Z,101822.38
2022-12-28T10:30:21.827Z,101822.00
2022-12-28T10:31:42.011Z,101826.00
2022-12-28T10:33:03.783Z,101828.53
2022-12-28T10:34:22.412Z,101828.22
2022-12-28T10:35:56.769Z,101817.88
2022-12-28T10:38:39.905Z,101823.13
2022-12-28T10:40:10.269Z,101818.94
2022-12-28T10:41:31.091Z,101814.94
2022-12-28T10:43:08.488Z,101817.03
2022-12-28T10:44:39.780Z,101821.56
2022-12-28T10:45:50.171Z,101813.19
2022-12-28T10:46:57.907Z,101819.63
2022-12-28T10:48:08.903Z,101808.78
2022-12-28T10:49:15.982Z,101814.84
2022-12-28T10:50:57.080Z,101814.06
2022-12-28T10:52:15.429Z,101818.16
2022-12-28T10:53:40.630Z,101814.09
2022-12-28T10:54:43.521Z,101811.66
2022-12-28T10:55:46.154Z,101805.47
2022-12-28T10:56:53.584Z,101805.25
2022-12-28T10:58:27.947Z,101801.38
2022-12-28T10:59:25.820Z,101797.44
2022-12-28T11:00:28.857Z,101800.03
2022-12-28T11:01:34.051Z,101802.09
2022-12-28T11:02:36.797Z,101793.03
2022-12-28T11:03:20.572Z,101829.44
2022-12-28T11:03:45.269Z,101801.53
2022-12-28T11:04:58.670Z,101793.97
2022-12-28T11:06:12.842Z,101800.47
2022-12-28T11:07:28.248Z,101795.28
2022-12-28T11:08:30.856Z,101796.66
2022-12-28T11:09:35.655Z,101788.78
2022-12-28T11:10:39.475Z,101793.13
2022-12-28T11:11:43.965Z,101789.22
2022-12-28T11:12:46.933Z,101795.91
2022-12-28T11:14:02.773Z,101800.00
2022-12-28T11:15:20.632Z,101797.00
2022-12-28T11:16:23.300Z,101797.25
2022-12-28T11:17:28.928Z,101800.94
2022-12-28T11:18:38.027Z,101792.84
2022-12-28T11:19:40.989Z,101785.50
2022-12-28T11:20:46.756Z,101782.16
2022-12-28T11:21:50.352Z,101786.97
2022-12-28T11:22:54.109Z,101781.94
2022-12-28T11:23:56.691Z,101783.03
2022-12-28T11:25:01.117Z,101784.09
2022-12-28T11:26:04.657Z,101783.00
2022-12-28T11:27:14.139Z,101786.69
2022-12-28T11:28:19.870Z,101779.97
2022-12-28T11:29:25.522Z,101783.81
2022-12-28T11:30:29.385Z,101782.44
2022-12-28T11:31:36.322Z,101784.03
2022-12-28T11:32:51.746Z,101780.56
2022-12-28T11:33:59.309Z,101777.47
2022-12-28T11:35:02.372Z,101781.34
2022-12-28T11:36:17.177Z,101778.72
2022-12-28T11:37:20.194Z,101777.25
2022-12-28T11:38:43.758Z,101779.09
2022-12-28T11:39:50.152Z,101765.72
2022-12-28T11:40:55.720Z,101775.28
2022-12-28T11:42:37.361Z,101767.59
2022-12-28T11:43:33.332Z,101774.75
2022-12-28T11:44:40.148Z,101766.25
2022-12-28T11:45:54.336Z,101766.09
2022-12-28T11:47:17.741Z,101766.97
2022-12-28T11:48:42.272Z,101767.72
2022-12-28T11:49:46.437Z,101755.09
2022-12-28T11:50:53.285Z,101752.22
2022-12-28T11:52:17.801Z,101764.34
2022-12-28T11:53:23.854Z,101754.72
2022-12-28T11:54:50.825Z,101759.69
2022-12-28T11:56:05.117Z,101753.38
2022-12-28T11:57:08.886Z,101753.34
2022-12-28T11:58:30.130Z,101753.88
2022-12-28T11:59:36.633Z,101750.72
2022-12-28T12:00:39.182Z,101752.25
2022-12-28T12:01:43.553Z,101742.31
2022-12-28T12:02:50.136Z,101746.31
2022-12-28T12:03:58.935Z,101742.84
2022-12-28T12:05:39.398Z,101741.56
2022-12-28T12:06:42.024Z,101748.66
2022-12-28T12:07:49.155Z,101743.13
2022-12-28T12:08:52.721Z,101744.41
2022-12-28T12:10:14.389Z,101748.28
2022-12-28T12:11:32.061Z,101732.59
2022-12-28T12:12:37.405Z,101734.88
2022-12-28T12:13:45.040Z,101734.34
2022-12-28T12:14:56.144Z,101735.41
2022-12-28T12:16:04.364Z,101742.88
2022-12-28T12:17:43.063Z,101743.66
2022-12-28T12:18:55.760Z,101740.66
2022-12-28T12:20:01.979Z,101744.69
2022-12-28T12:21:22.235Z,101735.03
2022-12-28T12:22:36.432Z,101740.31
2022-12-28T12:23:49.166Z,101729.22
2022-12-28T12:25:03.320Z,101736.41
2022-12-28T12:26:31.741Z,101740.66
2022-12-28T12:27:40.634Z,101731.34
2022-12-28T12:28:54.467Z,101732.38
2022-12-28T12:30:03.205Z,101731.09
2022-12-28T12:31:12.093Z,101733.63
2022-12-28T12:32:43.567Z,101732.75
2022-12-28T12:33:49.168Z,101721.84
2022-12-28T12:34:57.264Z,101722.78
2022-12-28T12:36:09.202Z,101718.22
2022-12-28T12:37:30.956Z,101720.72
2022-12-28T12:38:52.284Z,101721.63
2022-12-28T12:40:18.509Z,101727.09
2022-12-28T12:41:46.386Z,101723.72
2022-12-28T12:43:30.275Z,101715.56
2022-12-28T12:45:02.958Z,101716.78
2022-12-28T12:46:16.737Z,101721.63
2022-12-28T12:47:58.194Z,101704.16
2022-12-28T12:49:15.536Z,101706.66
2022-12-28T12:50:46.951Z,101705.50
2022-12-28T12:52:15.807Z,101709.66
2022-12-28T12:53:30.575Z,101698.66
2022-12-28T12:55:04.049Z,101706.09
2022-12-28T12:56:26.003Z,101707.56
2022-12-28T12:57:49.973Z,101707.81
2022-12-28T12:59:23.265Z,101701.25
2022-12-28T13:00:34.859Z,101695.44
2022-12-28T13:01:56.011Z,101692.56
2022-12-28T13:03:04.594Z,101688.59
2022-12-28T13:04:29.781Z,101690.16
2022-12-28T13:05:38.866Z,101686.97
2022-12-28T13:06:42.637Z,101690.41
2022-12-28T13:07:57.737Z,101686.38
2022-12-28T13:09:10.278Z,101685.00
2022-12-28T13:10:44.747Z,101679.00
2022-12-28T13:11:48.573Z,101674.50
2022-12-28T13:13:02.204Z,101679.19
2022-12-28T13:14:14.795Z,101676.81
2022-12-28T13:15:23.214Z,101669.19
2022-12-28T13:16:30.077Z,101669.22
2022-12-28T13:17:39.989Z,101668.22
2022-12-28T13:18:59.672Z,101668.94
2022-12-28T13:20:21.765Z,101665.81
2022-12-28T13:21:39.019Z,101659.00
2022-12-28T13:22:54.693Z,101651.66
2022-12-28T13:23:59.646Z,101642.78
2022-12-28T13:25:02.306Z,101646.72
2022-12-28T13:26:05.236Z,101640.19
2022-12-28T13:27:23.295Z,101639.41
2022-12-28T13:28:34.338Z,101640.13
2022-12-28T13:29:40.196Z,101641.09
2022-12-28T13:30:55.626Z,101638.25
2022-12-28T13:32:37.743Z,101629.91
2022-12-28T13:34:00.672Z,101637.50
2022-12-28T13:35:06.742Z,101627.78
2022-12-28T13:36:18.117Z,101639.03
2022-12-28T13:37:22.419Z,101637.44
2022-12-28T13:38:27.843Z,101628.88
2022-12-28T13:39:41.824Z,101632.78
2022-12-28T13:40:55.458Z,101625.66
2022-12-28T13:42:07.636Z,101630.13
2022-12-28T13:43:55.745Z,101628.53
2022-12-28T13:45:02.916Z,101626.19
2022-12-28T13:46:14.187Z,101621.25
2022-12-28T13:47:42.571Z,101630.66
2022-12-28T13:48:51.655Z,101634.06